Terminal Aerodrome Forecast
Issued by NWS

Home | Current Version | Previous Version | Text Only | Print | Product List | Glossary On
Versions: 1 2 3 4 5 6 7 8 9 10 11 12 13 14 15 16 17
000
FTUS46 KMFR 281720
TAFOTH
TAF
KOTH 281720Z 2818/2918 VRB03KT P6SM SCT120 BKN250
     FM282200 34008KT P6SM OVC100
     FM290300 VRB03KT P6SM SCT040 OVC080=

USA.gov is the U.S. government's official web portal to all federal, state and local government web resources and services.